Time;durP1;ratioP1;P1;durP2;ratioP2;P2;SDS_P1;SDS_P2;PMS_P1;PMS_P2;Temp;Humidity;BMP_temperature;BMP_pressure;BME280_temperature;BME280_humidity;BME280_pressure;Samples;Min_cycle;Max_cycle;Signal;HPM_P1;HPM_P2
2022/05/02 00:00:10;;;;;;;13.85;9.25;;;11.40;99.90;;;;;;5051705;28;20541;-44
2022/05/02 00:02:37;;;;;;;16.05;9.07;;;11.30;99.90;;;;;;5051376;28;20218;-43
2022/05/02 00:05:03;;;;;;;11.50;8.80;;;11.20;99.90;;;;;;5051596;28;20261;-43
2022/05/02 00:07:29;;;;;;;12.98;9.05;;;11.20;99.90;;;;;;5051807;28;20635;-43
2022/05/02 00:09:55;;;;;;;12.60;8.80;;;11.20;99.90;;;;;;5051682;28;20171;-44
2022/05/02 00:12:20;;;;;;;11.27;8.65;;;11.20;99.90;;;;;;5051449;28;20602;-43
2022/05/02 00:14:46;;;;;;;11.40;8.75;;;11.20;99.90;;;;;;5051451;28;20521;-44
2022/05/02 00:17:12;;;;;;;12.88;8.80;;;11.20;99.90;;;;;;5050220;28;20175;-44
2022/05/02 00:19:37;;;;;;;12.02;8.48;;;11.10;99.90;;;;;;5051302;28;20202;-43
2022/05/02 00:22:03;;;;;;;10.95;8.50;;;11.10;99.90;;;;;;5051709;28;20221;-44
2022/05/02 00:24:29;;;;;;;9.63;8.40;;;11.00;99.90;;;;;;5051568;28;20182;-44
2022/05/02 00:26:54;;;;;;;10.90;9.40;;;11.00;99.90;;;;;;5051299;28;20166;-44
2022/05/02 00:29:20;;;;;;;12.93;9.02;;;11.00;99.90;;;;;;5051579;28;20253;-43
2022/05/02 00:31:46;;;;;;;11.60;9.77;;;11.00;99.90;;;;;;5051917;28;20573;-43
2022/05/02 00:34:12;;;;;;;12.30;8.63;;;10.90;99.90;;;;;;5055024;28;20159;-44
2022/05/02 00:36:38;;;;;;;10.23;8.35;;;10.80;99.90;;;;;;5054961;28;20167;-43
2022/05/02 00:39:04;;;;;;;10.63;8.30;;;10.80;99.90;;;;;;5054808;28;20159;-43
2022/05/02 00:41:30;;;;;;;11.80;8.18;;;10.80;99.90;;;;;;5055041;28;20214;-44
2022/05/02 00:43:56;;;;;;;12.73;8.88;;;10.80;99.90;;;;;;5054778;28;20163;-44
2022/05/02 00:46:25;;;;;;;13.05;8.88;;;10.80;99.90;;;;;;5055047;28;20266;-44
2022/05/02 00:48:52;;;;;;;9.20;7.45;;;10.80;99.90;;;;;;5054684;28;20181;-45
2022/05/02 00:51:18;;;;;;;12.32;8.43;;;10.80;99.90;;;;;;5054782;28;20662;-44
2022/05/02 00:53:49;;;;;;;10.25;8.55;;;10.80;99.90;;;;;;5054641;28;20193;-44
2022/05/02 00:56:20;;;;;;;10.68;9.10;;;10.80;99.90;;;;;;5054638;28;20213;-44
2022/05/02 00:58:48;;;;;;;15.20;9.25;;;10.80;99.90;;;;;;5054821;28;20213;-44
2022/05/02 01:01:13;;;;;;;11.68;8.80;;;10.80;99.90;;;;;;5054483;28;20202;-44
2022/05/02 01:03:39;;;;;;;10.52;8.32;;;10.70;99.90;;;;;;5054264;28;20272;-45
2022/05/02 01:08:48;;;;;;;11.98;8.73;;;10.70;99.90;;;;;;5054607;28;20655;-43
2022/05/02 01:11:15;;;;;;;12.73;8.52;;;10.60;99.90;;;;;;5054328;28;20170;-45
2022/05/02 01:13:45;;;;;;;13.50;8.90;;;10.50;99.90;;;;;;5054150;28;20684;-44
2022/05/02 01:16:26;;;;;;;12.15;8.70;;;10.40;99.90;;;;;;5054255;28;20675;-47
2022/05/02 01:18:55;;;;;;;11.55;9.02;;;10.50;99.90;;;;;;5054367;28;20522;-45
2022/05/02 01:21:23;;;;;;;10.70;8.00;;;10.50;99.90;;;;;;5054048;28;20198;-44
2022/05/02 01:23:50;;;;;;;13.43;9.30;;;10.50;99.90;;;;;;5054014;28;20220;-45
2022/05/02 01:26:16;;;;;;;12.73;8.65;;;10.40;99.90;;;;;;5054069;28;20677;-44
2022/05/02 01:28:46;;;;;;;11.15;8.27;;;10.40;99.90;;;;;;5054249;28;20167;-46
2022/05/02 01:31:13;;;;;;;11.32;8.70;;;10.50;99.90;;;;;;5053999;28;20194;-44
2022/05/02 01:33:39;;;;;;;9.80;8.55;;;10.50;99.90;;;;;;5053847;28;20158;-45
2022/05/02 01:36:05;;;;;;;13.55;8.93;;;10.50;99.90;;;;;;5053797;28;20254;-45
2022/05/02 01:38:31;;;;;;;10.73;8.75;;;10.50;99.90;;;;;;5054103;28;20245;-44
2022/05/02 01:40:56;;;;;;;11.15;8.88;;;10.50;99.90;;;;;;5053674;28;20229;-45
2022/05/02 01:43:22;;;;;;;14.95;10.02;;;10.50;99.90;;;;;;5052807;28;20612;-44
2022/05/02 01:45:47;;;;;;;11.18;8.73;;;10.60;99.90;;;;;;5053826;28;20190;-44
2022/05/02 01:48:13;;;;;;;14.07;10.07;;;10.60;99.90;;;;;;5053611;28;20173;-45
2022/05/02 01:50:38;;;;;;;13.73;9.95;;;10.60;99.90;;;;;;5053555;28;20229;-47
2022/05/02 01:53:04;;;;;;;10.88;9.52;;;10.60;99.90;;;;;;5053647;28;20615;-45
2022/05/02 01:55:30;;;;;;;13.65;10.35;;;10.60;99.90;;;;;;5053819;28;20174;-46
2022/05/02 01:57:55;;;;;;;12.07;9.18;;;10.60;99.90;;;;;;5053513;28;20187;-44
2022/05/02 02:00:21;;;;;;;13.05;10.10;;;10.60;99.90;;;;;;5053368;28;20260;-46
2022/05/02 02:02:46;;;;;;;13.38;10.30;;;10.60;99.90;;;;;;5053230;28;20226;-45
2022/05/02 02:07:56;;;;;;;15.52;9.73;;;10.40;99.90;;;;;;5053313;28;20228;-45
2022/05/02 02:10:22;;;;;;;15.10;11.43;;;10.40;99.90;;;;;;5053145;28;20163;-44
2022/05/02 02:12:47;;;;;;;14.70;10.05;;;10.40;99.90;;;;;;5053091;28;20246;-47
2022/05/02 02:15:14;;;;;;;11.88;9.98;;;10.60;99.90;;;;;;5053144;28;20186;-44
2022/05/02 02:17:43;;;;;;;14.88;10.77;;;10.60;99.90;;;;;;5053291;28;20175;-46
2022/05/02 02:20:12;;;;;;;14.45;9.98;;;10.60;99.90;;;;;;5051659;28;20210;-45
2022/05/02 02:22:39;;;;;;;15.15;9.75;;;10.70;99.90;;;;;;5052966;28;20163;-45
2022/05/02 02:25:05;;;;;;;13.10;10.02;;;10.60;99.90;;;;;;5052870;28;20162;-47
2022/05/02 02:27:32;;;;;;;17.20;10.82;;;10.60;99.90;;;;;;5053183;28;20163;-47
2022/05/02 02:29:58;;;;;;;17.08;11.18;;;10.50;99.90;;;;;;5052818;28;20162;-43
2022/05/02 02:32:24;;;;;;;12.10;10.15;;;10.50;99.90;;;;;;5052985;28;20170;-43
2022/05/02 02:34:49;;;;;;;13.65;11.52;;;10.50;99.90;;;;;;5052724;28;20190;-43
2022/05/02 02:37:16;;;;;;;15.98;10.80;;;10.50;99.90;;;;;;5052774;28;20663;-43
2022/05/02 02:39:42;;;;;;;14.52;11.63;;;10.60;99.90;;;;;;5052579;28;20171;-43
2022/05/02 02:42:08;;;;;;;20.80;11.23;;;10.50;99.90;;;;;;5052727;28;20652;-43
2022/05/02 02:44:34;;;;;;;15.07;10.48;;;10.50;99.90;;;;;;5051566;28;20581;-43
2022/05/02 02:46:59;;;;;;;15.10;11.20;;;10.40;99.90;;;;;;5052919;28;20178;-43
2022/05/02 02:49:25;;;;;;;19.35;11.02;;;10.40;99.90;;;;;;5052566;28;20166;-44
2022/05/02 02:51:50;;;;;;;15.18;11.50;;;10.50;99.90;;;;;;5052693;28;20695;-43
2022/05/02 02:54:16;;;;;;;14.38;10.50;;;10.50;99.90;;;;;;5052579;28;20171;-43
2022/05/02 02:56:42;;;;;;;12.82;9.95;;;10.50;99.90;;;;;;5052228;28;20225;-43
2022/05/02 02:59:08;;;;;;;15.15;11.25;;;10.50;99.90;;;;;;5052286;28;20174;-43
2022/05/02 03:01:33;;;;;;;13.38;9.95;;;10.30;99.90;;;;;;5052437;28;20289;-44
2022/05/02 03:06:01;;;;;;;15.18;11.35;;;10.30;99.90;;;;;;5052581;28;20207;-43
2022/05/02 03:06:45;;;;;;;18.02;11.10;;;10.40;99.90;;;;;;5052003;28;20205;-43
2022/05/02 03:09:10;;;;;;;14.30;10.63;;;10.50;99.90;;;;;;5052144;28;20199;-43
2022/05/02 03:11:36;;;;;;;12.95;10.82;;;10.40;99.90;;;;;;5052179;28;20170;-43
2022/05/02 03:14:01;;;;;;;13.40;10.55;;;10.30;99.90;;;;;;5052372;28;20523;-43
2022/05/02 03:16:26;;;;;;;15.73;11.57;;;10.20;99.90;;;;;;5052082;28;20167;-44
2022/05/02 03:18:52;;;;;;;14.20;11.10;;;10.30;99.90;;;;;;5052111;28;20530;-44
2022/05/02 03:21:17;;;;;;;14.38;11.30;;;10.40;99.90;;;;;;5051864;28;20253;-46
2022/05/02 03:23:43;;;;;;;17.27;10.68;;;10.40;99.90;;;;;;5051950;28;20168;-44
2022/05/02 03:26:08;;;;;;;15.30;11.40;;;10.40;99.90;;;;;;5051920;28;20182;-46
2022/05/02 03:28:34;;;;;;;16.45;11.48;;;10.30;99.90;;;;;;5051916;28;20159;-43
2022/05/02 03:30:59;;;;;;;13.20;11.10;;;10.30;99.90;;;;;;5052184;28;20179;-45
2022/05/02 03:33:25;;;;;;;15.70;11.23;;;10.30;99.90;;;;;;5051866;28;20221;-44
2022/05/02 03:35:50;;;;;;;15.77;11.15;;;10.40;99.90;;;;;;5051805;28;20241;-44
2022/05/02 03:38:16;;;;;;;16.60;12.23;;;10.50;99.90;;;;;;5051773;28;20174;-47
2022/05/02 03:40:42;;;;;;;13.50;11.05;;;10.50;99.90;;;;;;5051742;28;20210;-46
2022/05/02 03:43:07;;;;;;;14.27;11.25;;;10.50;99.90;;;;;;5052112;28;20228;-43
2022/05/02 03:45:33;;;;;;;17.70;11.82;;;10.40;99.90;;;;;;5052281;28;20174;-45
2022/05/02 03:47:59;;;;;;;14.80;11.82;;;10.40;99.90;;;;;;5051983;28;20244;-45
2022/05/02 03:50:24;;;;;;;14.38;11.23;;;10.40;99.90;;;;;;5051707;28;20254;-46
2022/05/02 03:52:50;;;;;;;13.00;11.05;;;10.40;99.90;;;;;;5051659;28;20228;-44
2022/05/02 03:55:15;;;;;;;14.70;11.85;;;10.30;99.90;;;;;;5051829;28;20174;-47
2022/05/02 03:57:41;;;;;;;16.95;12.30;;;10.40;99.90;;;;;;5051700;28;20174;-47
2022/05/02 04:00:08;;;;;;;18.20;11.98;;;10.40;99.90;;;;;;5051503;28;20202;-45
2022/05/02 04:02:34;;;;;;;16.02;11.68;;;10.40;99.90;;;;;;5051370;28;20699;-44
2022/05/02 04:05:00;;;;;;;18.02;12.73;;;10.40;99.90;;;;;;5052038;28;20257;-45
2022/05/02 04:07:25;;;;;;;16.15;11.88;;;10.40;99.90;;;;;;5053318;28;20162;-45
2022/05/02 04:09:51;;;;;;;18.13;12.18;;;10.40;99.90;;;;;;5055062;28;20198;-44
2022/05/02 04:12:16;;;;;;;17.13;12.07;;;10.40;99.90;;;;;;5055350;28;20171;-47
2022/05/02 04:14:42;;;;;;;17.40;12.45;;;10.40;99.90;;;;;;5055339;28;20530;-47
2022/05/02 04:17:09;;;;;;;17.05;12.90;;;10.40;99.90;;;;;;5055545;28;20190;-44
2022/05/02 04:19:34;;;;;;;15.85;12.13;;;10.40;99.90;;;;;;5055280;28;20259;-44
2022/05/02 04:22:00;;;;;;;16.67;12.27;;;10.40;99.90;;;;;;5055670;28;20250;-45
2022/05/02 04:24:26;;;;;;;16.05;11.93;;;10.40;99.90;;;;;;5055141;28;20167;-44
2022/05/02 04:26:51;;;;;;;18.80;12.73;;;10.30;99.90;;;;;;5055198;28;20171;-47
2022/05/02 04:29:17;;;;;;;14.00;11.27;;;10.20;99.90;;;;;;5055013;28;20175;-45
2022/05/02 04:31:42;;;;;;;15.65;11.00;;;10.20;99.90;;;;;;5053687;28;20232;-43
2022/05/02 04:34:08;;;;;;;14.48;12.07;;;10.30;99.90;;;;;;5055179;28;20171;-43
2022/05/02 04:36:33;;;;;;;16.40;12.15;;;10.30;99.90;;;;;;5055427;28;20639;-43
2022/05/02 04:38:59;;;;;;;15.07;12.40;;;10.90;99.90;;;;;;5055243;28;20213;-44
2022/05/02 04:41:24;;;;;;;17.58;12.70;;;10.30;99.90;;;;;;5054549;28;20217;-43
2022/05/02 04:43:52;;;;;;;20.75;12.73;;;10.30;99.90;;;;;;5054749;28;20167;-44
2022/05/02 04:46:22;;;;;;;16.10;11.95;;;10.20;99.90;;;;;;5054517;28;20174;-43
2022/05/02 04:48:47;;;;;;;18.88;12.40;;;10.20;99.90;;;;;;5054908;28;20175;-44
2022/05/02 04:51:13;;;;;;;17.90;12.43;;;10.20;99.90;;;;;;5054697;28;20753;-44
2022/05/02 04:53:38;;;;;;;18.20;12.63;;;10.20;99.90;;;;;;5054869;28;20777;-45
2022/05/02 04:56:04;;;;;;;15.15;12.20;;;10.20;99.90;;;;;;5054653;28;20176;-44
2022/05/02 04:58:30;;;;;;;14.15;12.13;;;10.20;99.90;;;;;;5055118;28;20659;-43
2022/05/02 05:00:55;;;;;;;16.27;13.32;;;10.20;99.90;;;;;;5054404;28;20206;-43
2022/05/02 05:03:22;;;;;;;18.40;13.20;;;10.20;99.90;;;;;;5054248;28;20621;-43
2022/05/02 05:05:48;;;;;;;19.73;13.68;;;10.30;99.90;;;;;;5054620;28;20170;-44
2022/05/02 05:08:14;;;;;;;16.17;12.63;;;10.40;99.90;;;;;;5054321;28;20174;-43
2022/05/02 05:11:08;;;;;;;21.13;13.80;;;10.60;99.90;;;;;;5054592;28;20215;-44
2022/05/02 05:16:56;;;;;;;16.25;11.80;;;10.60;99.90;;;;;;5054477;28;20182;-45
2022/05/02 05:19:39;;;;;;;22.15;13.05;;;10.70;99.90;;;;;;5052723;28;20585;-45
2022/05/02 05:22:27;;;;;;;20.02;13.43;;;10.70;99.90;;;;;;5054053;28;20523;-43
2022/05/02 05:25:13;;;;;;;17.13;13.02;;;10.70;99.90;;;;;;5054005;28;20170;-44
2022/05/02 05:28:01;;;;;;;22.08;13.48;;;10.80;99.90;;;;;;5053794;28;20175;-44
2022/05/02 05:30:27;;;;;;;19.83;12.70;;;10.80;99.90;;;;;;5053911;28;20658;-43
2022/05/02 05:33:34;;;;;;;19.25;12.25;;;10.90;99.90;;;;;;5054068;28;20182;-43
2022/05/02 05:36:29;;;;;;;16.17;13.60;;;11.00;99.90;;;;;;5054385;28;20166;-43
2022/05/02 05:39:10;;;;;;;17.17;12.45;;;10.90;99.90;;;;;;5053719;28;20224;-43
2022/05/02 05:41:57;;;;;;;19.70;13.50;;;10.90;99.90;;;;;;5053634;28;20218;-44
2022/05/02 05:44:45;;;;;;;17.38;13.40;;;11.00;99.90;;;;;;5053947;28;20241;-44
2022/05/02 05:47:48;;;;;;;19.67;12.90;;;10.90;99.90;;;;;;5053784;28;20258;-46
2022/05/02 05:50:22;;;;;;;19.80;12.05;;;10.90;99.90;;;;;;5044930;28;20191;-44
2022/05/02 05:53:24;;;;;;;20.13;13.85;;;10.80;99.90;;;;;;5053573;28;20628;-44
2022/05/02 05:56:10;;;;;;;18.15;13.15;;;10.90;99.90;;;;;;5053491;28;20166;-43
2022/05/02 05:58:45;;;;;;;19.75;12.23;;;10.90;99.90;;;;;;5053598;28;20646;-43
2022/05/02 06:01:28;;;;;;;20.80;13.50;;;10.90;99.90;;;;;;5053657;28;20210;-43
2022/05/02 06:04:03;;;;;;;21.33;13.38;;;10.90;99.90;;;;;;5053141;28;20211;-43
2022/05/02 06:06:29;;;;;;;24.38;14.27;;;11.00;99.90;;;;;;5053433;28;20178;-43
2022/05/02 06:08:58;;;;;;;18.40;13.55;;;11.10;99.90;;;;;;5053461;28;20209;-43
2022/05/02 06:11:25;;;;;;;20.80;13.23;;;11.10;99.90;;;;;;5053387;28;20270;-44
2022/05/02 06:13:54;;;;;;;19.42;14.07;;;11.20;99.90;;;;;;5053375;28;20228;-43
2022/05/02 06:19:26;;;;;;;17.77;13.55;;;11.40;99.90;;;;;;5053323;28;20208;-44
2022/05/02 06:21:53;;;;;;;20.52;13.70;;;11.50;99.90;;;;;;5052655;28;20633;-43
2022/05/02 06:24:19;;;;;;;18.98;15.18;;;11.60;99.90;;;;;;5052943;28;20170;-44
2022/05/02 06:26:49;;;;;;;18.80;14.02;;;11.70;99.90;;;;;;5052931;28;20171;-44
2022/05/02 06:29:18;;;;;;;16.23;14.05;;;11.70;99.90;;;;;;5052583;28;20209;-44
2022/05/02 06:31:47;;;;;;;16.73;12.73;;;11.80;99.90;;;;;;5052929;28;20170;-43
2022/05/02 06:34:14;;;;;;;18.65;12.95;;;11.80;99.90;;;;;;5052972;28;20170;-43
2022/05/02 06:36:49;;;;;;;16.45;13.05;;;11.90;99.90;;;;;;5052704;28;20662;-43
2022/05/02 06:39:38;;;;;;;18.38;12.95;;;12.00;99.90;;;;;;5052657;28;20253;-44
2022/05/02 06:42:30;;;;;;;18.02;13.05;;;12.10;99.90;;;;;;5052589;28;20236;-43
2022/05/02 06:45:23;;;;;;;19.33;12.52;;;12.30;99.90;;;;;;5052509;28;20530;-43
2022/05/02 06:47:55;;;;;;;20.55;13.20;;;12.50;99.90;;;;;;5052439;28;20202;-43
2022/05/02 06:50:25;;;;;;;18.02;12.65;;;12.50;99.90;;;;;;5052374;28;20177;-44
2022/05/02 06:53:11;;;;;;;15.98;13.35;;;12.50;99.90;;;;;;5052347;28;20177;-43
2022/05/02 06:55:49;;;;;;;16.30;13.38;;;12.60;99.90;;;;;;5052397;28;20253;-44
2022/05/02 06:58:30;;;;;;;15.23;12.15;;;12.70;99.90;;;;;;5052369;28;20166;-43
2022/05/02 07:01:13;;;;;;;15.93;13.15;;;12.90;99.90;;;;;;5052237;28;20202;-44
2022/05/02 07:03:57;;;;;;;17.55;12.60;;;13.10;99.90;;;;;;5052047;28;20211;-44
2022/05/02 07:06:48;;;;;;;13.32;11.35;;;13.10;99.90;;;;;;5050997;28;20170;-44
2022/05/02 07:09:23;;;;;;;17.27;12.80;;;13.10;99.90;;;;;;5052217;28;20187;-43
2022/05/02 07:12:11;;;;;;;15.38;12.95;;;13.30;99.90;;;;;;5052075;28;20166;-43
2022/05/02 07:15:11;;;;;;;15.70;13.10;;;13.50;99.90;;;;;;5052143;28;20169;-44
2022/05/02 07:17:42;;;;;;;21.92;14.20;;;13.50;99.90;;;;;;5043310;28;20183;-43
2022/05/02 07:20:30;;;;;;;16.95;13.88;;;13.70;99.90;;;;;;5051938;28;20206;-44
2022/05/02 07:23:20;;;;;;;15.82;12.50;;;13.60;99.90;;;;;;5051864;28;20178;-44
2022/05/02 07:25:53;;;;;;;15.38;13.00;;;13.70;99.90;;;;;;5051908;28;20167;-44
2022/05/02 07:28:28;;;;;;;17.75;13.23;;;13.80;99.90;;;;;;5051857;28;20228;-44
2022/05/02 07:30:57;;;;;;;14.95;13.35;;;13.90;99.90;;;;;;5050928;28;20178;-44
2022/05/02 07:33:25;;;;;;;15.68;13.13;;;13.70;99.90;;;;;;5051821;28;20589;-45
2022/05/02 07:35:51;;;;;;;18.55;15.13;;;13.60;99.90;;;;;;5051794;28;20262;-43
2022/05/02 07:38:20;;;;;;;18.35;14.32;;;13.80;99.90;;;;;;5051807;28;20253;-44
2022/05/02 07:41:22;;;;;;;18.63;13.32;;;14.00;99.90;;;;;;5051825;28;20206;-44
2022/05/02 07:43:35;;;;;;;17.65;14.50;;;14.00;99.90;;;;;;5055736;28;20175;-43
2022/05/02 07:46:03;;;;;;;21.95;15.88;;;14.00;99.90;;;;;;5056549;28;20170;-43
2022/05/02 07:48:32;;;;;;;20.38;16.45;;;14.30;99.90;;;;;;5056120;28;20167;-43
2022/05/02 07:50:59;;;;;;;19.52;16.17;;;14.50;99.90;;;;;;5056052;28;20204;-44
2022/05/02 07:53:26;;;;;;;17.60;15.10;;;14.60;99.90;;;;;;5055655;28;20162;-44
2022/05/02 07:55:55;;;;;;;17.92;14.27;;;14.80;99.90;;;;;;5055582;28;20548;-44
2022/05/02 07:58:24;;;;;;;17.13;15.35;;;14.70;99.90;;;;;;5055647;28;20628;-43
2022/05/02 08:00:49;;;;;;;19.60;14.65;;;14.70;99.90;;;;;;5055590;28;20249;-44
2022/05/02 08:03:18;;;;;;;17.90;15.07;;;14.90;99.90;;;;;;5055379;28;20241;-46
2022/05/02 08:05:49;;;;;;;18.95;14.45;;;14.70;99.90;;;;;;5055494;28;20171;-47
2022/05/02 08:08:34;;;;;;;17.08;15.27;;;14.90;99.90;;;;;;5055488;28;20163;-46
2022/05/02 08:11:34;;;;;;;17.30;13.70;;;15.20;99.90;;;;;;5055721;28;20162;-44
2022/05/02 08:14:12;;;;;;;19.15;13.75;;;15.40;99.90;;;;;;5055808;28;20190;-43
2022/05/02 08:16:45;;;;;;;16.35;13.25;;;15.40;99.90;;;;;;5055446;28;20675;-44
2022/05/02 08:19:23;;;;;;;19.77;13.80;;;15.40;99.90;;;;;;5055261;28;20178;-43
2022/05/02 08:27:15;;;;;;;23.05;13.93;;;15.40;99.90;;;;;;5055218;28;20210;-44
2022/05/02 08:28:23;;;;;;;15.10;12.30;;;15.40;99.90;;;;;;5033371;28;20752;-43
2022/05/02 08:31:01;;;;;;;21.38;13.35;;;14.80;99.90;;;;;;5032353;28;20306;-43
2022/05/02 08:33:29;;;;;;;18.40;13.63;;;15.60;99.90;;;;;;5047891;28;20538;-43
2022/05/02 08:36:12;;;;;;;14.30;12.80;;;15.70;99.90;;;;;;5054887;28;20251;-43
2022/05/02 08:38:58;;;;;;;15.40;13.60;;;15.70;99.90;;;;;;5054589;28;20170;-43
2022/05/02 08:41:34;;;;;;;20.27;11.30;;;15.80;99.90;;;;;;5053375;28;20214;-44
2022/05/02 08:44:19;;;;;;;13.98;10.65;;;16.30;99.90;;;;;;5055265;28;20269;-43
2022/05/02 08:47:14;;;;;;;13.75;11.18;;;15.80;99.90;;;;;;5054347;28;20690;-43
2022/05/02 08:50:15;;;;;;;15.35;10.48;;;15.70;99.90;;;;;;5054541;28;20174;-43
2022/05/02 08:53:05;;;;;;;15.95;11.65;;;15.70;99.90;;;;;;5042286;28;20237;-44
2022/05/02 08:55:48;;;;;;;16.17;10.65;;;15.90;99.90;;;;;;5054744;28;20170;-44
2022/05/02 08:58:25;;;;;;;11.10;10.00;;;16.20;99.90;;;;;;5054345;28;20705;-45
2022/05/02 09:01:00;;;;;;;14.07;10.32;;;15.90;99.90;;;;;;5054275;28;20202;-43
2022/05/02 09:03:45;;;;;;;16.63;10.95;;;16.10;99.90;;;;;;5054117;28;20249;-44
2022/05/02 09:06:48;;;;;;;13.32;11.30;;;16.40;99.90;;;;;;5054539;28;20179;-43
2022/05/02 09:09:47;;;;;;;14.02;10.88;;;16.50;99.90;;;;;;5054223;28;20173;-43
2022/05/02 09:12:53;;;;;;;13.40;9.77;;;16.70;99.90;;;;;;5054127;28;20693;-43
2022/05/02 09:15:58;;;;;;;16.98;10.38;;;16.80;99.90;;;;;;5050963;28;20193;-43
2022/05/02 09:19:17;;;;;;;15.50;10.65;;;16.80;99.90;;;;;;5054233;28;20170;-43
2022/05/02 09:21:58;;;;;;;14.73;9.88;;;16.90;99.90;;;;;;5031637;28;20211;-44
2022/05/02 09:25:07;;;;;;;12.00;9.90;;;17.10;99.90;;;;;;5051837;28;20276;-43
2022/05/02 09:27:54;;;;;;;12.90;10.38;;;17.10;99.90;;;;;;5054462;28;20179;-44
2022/05/02 09:30:50;;;;;;;13.20;9.20;;;17.20;99.90;;;;;;5052399;28;20654;-44
2022/05/02 09:33:34;;;;;;;11.48;8.93;;;17.40;99.90;;;;;;5052227;28;20177;-45
2022/05/02 09:36:03;;;;;;;11.30;9.48;;;17.30;99.90;;;;;;5052198;28;20163;-44
2022/05/02 09:38:51;;;;;;;9.93;8.88;;;17.40;99.90;;;;;;5052141;28;20185;-45
2022/05/02 09:41:45;;;;;;;11.40;8.68;;;17.30;99.90;;;;;;5052524;28;20609;-44
2022/05/02 09:51:01;;;;;;;13.73;9.15;;;17.50;99.90;;;;;;5051940;28;20253;-44
2022/05/02 09:53:44;;;;;;;11.52;8.85;;;17.70;99.90;;;;;;5052009;28;20257;-45
2022/05/02 09:56:40;;;;;;;10.93;7.53;;;17.90;99.90;;;;;;5051880;28;20699;-44
2022/05/02 09:59:21;;;;;;;9.73;8.30;;;17.70;99.90;;;;;;5051875;28;20193;-43
2022/05/02 10:01:50;;;;;;;11.52;8.90;;;18.10;99.90;;;;;;5051771;28;20739;-44
2022/05/02 10:04:45;;;;;;;10.27;8.07;;;18.10;99.90;;;;;;5051193;28;20228;-44
2022/05/02 10:07:16;;;;;;;12.93;9.00;;;18.10;99.90;;;;;;5051111;28;20171;-43
2022/05/02 10:10:05;;;;;;;12.82;8.85;;;18.30;99.90;;;;;;5051691;28;20170;-44
2022/05/02 10:12:43;;;;;;;9.25;8.13;;;18.60;99.90;;;;;;5052314;28;20177;-43
2022/05/02 10:15:20;;;;;;;9.43;8.10;;;18.50;99.90;;;;;;5052007;28;20162;-43
2022/05/02 10:18:18;;;;;;;11.30;8.02;;;18.40;99.90;;;;;;5051585;28;20213;-43
2022/05/02 10:21:07;;;;;;;6.82;6.13;;;18.60;99.90;;;;;;5053046;28;20217;-43
2022/05/02 10:24:01;;;;;;;11.65;8.68;;;18.30;99.90;;;;;;5053470;28;20177;-44
2022/05/02 10:26:35;;;;;;;12.23;8.13;;;18.50;99.90;;;;;;5052984;28;20171;-44
2022/05/02 10:29:23;;;;;;;12.30;9.02;;;18.80;99.90;;;;;;5053182;28;20225;-46
2022/05/02 10:32:15;;;;;;;10.55;8.85;;;18.90;99.90;;;;;;5052818;28;20170;-44
2022/05/02 10:34:46;;;;;;;10.80;8.90;;;18.90;99.90;;;;;;5052736;28;20198;-44
2022/05/02 10:37:15;;;;;;;11.55;9.32;;;18.90;99.90;;;;;;5052749;28;20173;-44
2022/05/02 10:39:47;;;;;;;11.88;8.52;;;19.10;99.90;;;;;;5052752;28;20174;-43
2022/05/02 10:42:17;;;;;;;12.25;9.85;;;18.70;99.90;;;;;;5052930;28;20209;-44
2022/05/02 10:45:09;;;;;;;12.10;9.95;;;18.70;99.90;;;;;;5052865;28;20198;-44
2022/05/02 10:47:44;;;;;;;11.85;9.65;;;19.20;99.90;;;;;;5052229;28;20655;-43
2022/05/02 10:50:16;;;;;;;11.07;9.65;;;19.30;99.90;;;;;;5052467;28;20657;-44
2022/05/02 10:52:51;;;;;;;11.38;9.27;;;19.40;99.90;;;;;;5052533;28;20224;-43
2022/05/02 10:55:23;;;;;;;12.13;9.40;;;19.30;99.90;;;;;;5052324;28;20166;-44
2022/05/02 10:57:54;;;;;;;14.45;10.27;;;19.40;99.90;;;;;;5052161;28;20174;-44
2022/05/02 11:00:21;;;;;;;10.88;9.82;;;19.40;99.90;;;;;;5052449;28;20199;-44
2022/05/02 11:03:04;;;;;;;9.77;8.63;;;19.50;99.90;;;;;;5051943;28;20222;-44
2022/05/02 11:05:43;;;;;;;12.15;9.65;;;19.60;99.90;;;;;;5052538;28;20674;-45
2022/05/02 11:08:11;;;;;;;11.25;9.93;;;19.60;99.90;;;;;;5050706;28;20209;-46
2022/05/02 11:10:47;;;;;;;10.32;9.27;;;19.70;99.90;;;;;;5052419;28;20198;-47
2022/05/02 11:13:45;;;;;;;13.57;10.25;;;19.90;99.90;;;;;;5050911;28;20253;-47
2022/05/02 11:16:22;;;;;;;10.98;9.70;;;19.80;99.90;;;;;;5052199;28;20602;-48
2022/05/02 11:22:32;;;;;;;10.45;9.38;;;20.80;99.90;;;;;;5052307;28;20340;-46
2022/05/02 11:24:58;;;;;;;9.27;8.15;;;20.20;99.90;;;;;;5051668;28;20166;-47
2022/05/02 11:27:36;;;;;;;10.90;9.80;;;19.80;99.90;;;;;;5050479;28;20167;-44
2022/05/02 11:30:07;;;;;;;11.25;8.68;;;20.00;99.90;;;;;;5052064;28;20527;-47
2022/05/02 11:32:46;;;;;;;10.73;8.50;;;20.20;99.90;;;;;;5052348;28;20205;-44
2022/05/02 11:35:29;;;;;;;13.23;9.55;;;20.10;99.90;;;;;;5051339;28;20640;-45
2022/05/02 11:38:25;;;;;;;13.10;9.50;;;20.00;99.90;;;;;;5052113;28;20182;-45
2022/05/02 11:40:57;;;;;;;11.10;8.88;;;20.00;99.90;;;;;;5051789;28;20214;-44
2022/05/02 11:43:23;;;;;;;10.30;9.20;;;20.20;99.90;;;;;;5051632;28;20171;-44
2022/05/02 11:46:03;;;;;;;10.70;9.55;;;20.30;99.90;;;;;;5051792;28;20167;-44
2022/05/02 11:48:36;;;;;;;12.80;8.80;;;20.50;99.90;;;;;;5051759;28;20171;-44
2022/05/02 11:51:06;;;;;;;11.88;9.15;;;20.50;99.90;;;;;;5052026;28;20203;-44
2022/05/02 11:53:35;;;;;;;10.20;8.18;;;20.80;99.90;;;;;;5052007;28;20237;-45
2022/05/02 11:56:05;;;;;;;13.30;9.57;;;20.90;98.30;;;;;;5052141;28;20205;-45
2022/05/02 11:58:45;;;;;;;10.45;8.98;;;21.00;99.20;;;;;;5051022;28;20258;-43
2022/05/02 12:01:12;;;;;;;11.27;9.13;;;20.90;99.90;;;;;;5051603;28;20206;-44
2022/05/02 12:04:03;;;;;;;16.60;9.73;;;20.70;98.10;;;;;;5051548;28;20309;-46
2022/05/02 12:06:41;;;;;;;14.00;8.73;;;20.30;99.10;;;;;;5051595;28;20181;-44
2022/05/02 12:09:20;;;;;;;13.00;9.73;;;19.80;98.90;;;;;;5051607;28;20167;-44
2022/05/02 12:11:54;;;;;;;13.38;8.55;;;19.60;99.20;;;;;;5051545;28;20169;-44
2022/05/02 12:14:21;;;;;;;12.70;8.95;;;19.60;99.90;;;;;;5051778;28;20167;-46
2022/05/02 12:17:10;;;;;;;9.57;8.52;;;19.80;99.90;;;;;;5051770;28;20174;-44
2022/05/02 12:19:37;;;;;;;8.80;7.68;;;19.60;99.40;;;;;;5051650;28;20595;-46
2022/05/02 12:22:07;;;;;;;11.75;8.52;;;19.50;99.90;;;;;;5051511;28;20609;-44
2022/05/02 12:24:36;;;;;;;13.95;9.60;;;19.40;99.60;;;;;;5051835;28;20186;-44
2022/05/02 12:27:07;;;;;;;11.20;8.35;;;19.70;99.90;;;;;;5051608;28;20163;-45
2022/05/02 12:29:35;;;;;;;12.35;8.77;;;19.90;99.60;;;;;;5055066;28;20663;-46
2022/05/02 12:32:04;;;;;;;13.45;8.48;;;19.70;99.70;;;;;;5055519;28;20568;-46
2022/05/02 12:34:42;;;;;;;14.20;8.43;;;19.60;99.90;;;;;;5055326;28;20562;-46
2022/05/02 12:37:31;;;;;;;11.60;8.85;;;20.30;99.60;;;;;;5054763;28;20170;-44
2022/05/02 12:40:19;;;;;;;10.85;8.98;;;20.30;97.50;;;;;;5055121;28;20201;-47
2022/05/02 12:42:55;;;;;;;13.05;9.77;;;20.10;98.80;;;;;;5054162;28;20175;-43
2022/05/02 12:45:22;;;;;;;11.05;9.23;;;20.40;98.00;;;;;;5054647;28;20273;-45
2022/05/02 12:48:06;;;;;;;10.93;8.25;;;20.70;97.70;;;;;;5054775;28;20202;-45
2022/05/02 12:50:44;;;;;;;9.80;8.88;;;20.70;99.40;;;;;;5054654;28;20167;-45
2022/05/02 12:56:10;;;;;;;11.23;8.40;;;21.00;96.90;;;;;;5054389;28;20606;-47
2022/05/02 13:01:23;;;;;;;11.05;9.70;;;20.70;97.30;;;;;;5054352;28;20252;-44
2022/05/02 13:04:02;;;;;;;10.13;8.43;;;20.60;97.20;;;;;;5054063;28;20226;-44
2022/05/02 13:06:27;;;;;;;10.07;8.85;;;20.20;98.10;;;;;;5052956;28;20224;-45
2022/05/02 13:09:12;;;;;;;10.32;8.85;;;20.20;97.00;;;;;;5054197;28;20636;-45
2022/05/02 13:11:38;;;;;;;13.93;8.52;;;20.60;96.60;;;;;;5054136;28;20206;-43
2022/05/02 13:14:05;;;;;;;10.27;9.18;;;20.80;96.10;;;;;;5054317;28;20162;-41
2022/05/02 13:16:44;;;;;;;11.32;9.20;;;20.90;96.70;;;;;;5054386;28;20636;-44
2022/05/02 13:19:11;;;;;;;11.40;9.32;;;21.30;95.20;;;;;;5053954;28;20205;-43
2022/05/02 13:21:37;;;;;;;11.13;8.90;;;21.30;95.30;;;;;;5053831;28;20682;-43
2022/05/02 13:24:09;;;;;;;10.90;8.90;;;21.40;94.60;;;;;;5054427;28;20181;-42
2022/05/02 13:27:17;;;;;;;12.45;9.57;;;21.30;94.70;;;;;;5054219;28;20166;-42
2022/05/02 13:30:10;;;;;;;10.57;9.10;;;20.80;94.70;;;;;;5054177;28;20264;-42
2022/05/02 13:32:58;;;;;;;11.95;8.30;;;21.00;94.80;;;;;;5053895;28;20174;-42
2022/05/02 13:35:29;;;;;;;11.15;9.05;;;21.20;96.00;;;;;;5053585;28;20194;-45